Terminal Aerodrome Forecast
Issued by NWS

Home | Current Version | Previous Version | Text Only | Print | Product List | Glossary On
Versions: 1 2 3 4 5 6 7 8 9 10 11 12 13 14 15 16 17 18 19 20 21 22 23 24 25 26
000
FTUS45 KGJT 231143
TAFASE
TAF
KASE 231143Z 2312/2412 35006KT 2SM -SN BR SCT009 OVC020
      TEMPO 2312/2316 1SM -SN BR VV010
     FM231800 36010KT 3SM -SN BR BKN020
     FM240100 35004KT P6SM VCSH SCT030 BKN050=

USA.gov is the U.S. government's official web portal to all federal, state and local government web resources and services.